createdAt,value
2018-09-02T00:01:20.332Z,18.07
2018-09-02T00:03:48.878Z,18.33
2018-09-02T00:06:17.556Z,19.40
2018-09-02T00:08:46.102Z,21.73
2018-09-02T00:11:14.608Z,18.50
2018-09-02T00:13:43.226Z,20.43
2018-09-02T00:16:12.350Z,22.77
2018-09-02T00:18:41.459Z,23.60
2018-09-02T00:21:10.212Z,20.50
2018-09-02T00:23:38.785Z,21.93
2018-09-02T00:26:07.300Z,23.13
2018-09-02T00:28:36.957Z,22.83
2018-09-02T00:31:06.061Z,22.07
2018-09-02T00:33:34.661Z,23.70
2018-09-02T00:36:03.566Z,23.67
2018-09-02T00:38:32.294Z,25.03
2018-09-02T00:41:01.384Z,22.10
2018-09-02T00:43:30.013Z,20.80
2018-09-02T00:45:58.558Z,21.30
2018-09-02T00:48:27.502Z,24.83
2018-09-02T00:50:56.597Z,25.00
2018-09-02T00:53:27.814Z,23.50
2018-09-02T00:55:57.376Z,23.80
2018-09-02T00:58:25.875Z,24.13
2018-09-02T01:00:54.407Z,23.30
2018-09-02T01:03:23.042Z,25.77
2018-09-02T01:05:52.318Z,26.33
2018-09-02T01:08:21.050Z,23.87
2018-09-02T01:10:50.263Z,23.90
2018-09-02T01:13:19.200Z,24.13
2018-09-02T01:15:48.408Z,23.53
2018-09-02T01:18:17.346Z,26.77
2018-09-02T01:20:46.027Z,24.27
2018-09-02T01:23:14.599Z,25.50
2018-09-02T01:25:43.102Z,24.40
2018-09-02T01:28:12.090Z,23.00
2018-09-02T01:30:40.938Z,24.93
2018-09-02T01:33:10.065Z,26.13
2018-09-02T01:35:39.339Z,26.57
2018-09-02T01:38:07.916Z,26.07
2018-09-02T01:40:36.623Z,25.70
2018-09-02T01:43:05.937Z,27.37
2018-09-02T01:45:34.609Z,26.90
2018-09-02T01:48:04.247Z,28.07
2018-09-02T01:50:32.806Z,26.67
2018-09-02T01:53:01.379Z,27.00
2018-09-02T01:55:29.864Z,26.87
2018-09-02T01:57:58.551Z,29.07
2018-09-02T02:00:27.155Z,25.20
2018-09-02T02:02:55.878Z,25.27
2018-09-02T02:05:24.528Z,25.93
2018-09-02T02:07:54.272Z,27.00
2018-09-02T02:10:22.752Z,26.20
2018-09-02T02:12:51.520Z,26.87
2018-09-02T02:15:20.117Z,26.23
2018-09-02T02:17:48.594Z,27.37
2018-09-02T02:20:17.302Z,24.97
2018-09-02T02:22:45.851Z,24.53
2018-09-02T02:25:14.531Z,22.67
2018-09-02T02:27:43.442Z,21.57
2018-09-02T02:30:12.039Z,23.23
2018-09-02T02:32:40.940Z,23.27
2018-09-02T02:35:09.611Z,22.87
2018-09-02T02:37:38.185Z,24.87
2018-09-02T02:40:06.760Z,23.43
2018-09-02T02:42:35.412Z,26.80
2018-09-02T02:45:04.418Z,25.03
2018-09-02T02:47:33.882Z,26.10
2018-09-02T02:50:02.375Z,27.10
2018-09-02T02:52:36.182Z,24.57
2018-09-02T02:55:04.786Z,24.73
2018-09-02T02:57:33.336Z,25.57
2018-09-02T03:00:01.989Z,26.30
2018-09-02T03:02:30.503Z,23.90
2018-09-02T03:04:59.045Z,22.27
2018-09-02T03:07:27.640Z,24.20
2018-09-02T03:09:57.034Z,24.67
2018-09-02T03:12:25.546Z,22.53
2018-09-02T03:14:54.056Z,22.23
2018-09-02T03:17:23.150Z,20.10
2018-09-02T03:19:51.739Z,22.97
2018-09-02T03:22:20.262Z,20.73
2018-09-02T03:24:49.042Z,22.97
2018-09-02T03:27:17.563Z,21.10
2018-09-02T03:29:46.820Z,21.63
2018-09-02T03:32:15.377Z,24.07
2018-09-02T03:34:43.874Z,23.00
2018-09-02T03:37:13.090Z,23.30
2018-09-02T03:39:41.873Z,21.60
2018-09-02T03:42:10.453Z,19.90
2018-09-02T03:44:38.967Z,21.60
2018-09-02T03:47:07.789Z,19.70
2018-09-02T03:49:36.393Z,20.90
2018-09-02T03:52:04.939Z,20.20
2018-09-02T03:54:33.441Z,19.83
2018-09-02T03:57:02.210Z,17.17
2018-09-02T03:59:31.928Z,18.30
2018-09-02T04:02:01.226Z,18.03
2018-09-02T04:04:30.392Z,20.03
2018-09-02T04:06:58.906Z,18.03
2018-09-02T04:09:27.592Z,19.33
2018-09-02T04:11:56.099Z,19.57
2018-09-02T04:14:24.616Z,19.10
2018-09-02T04:16:53.207Z,20.10
2018-09-02T04:19:21.721Z,18.77
2018-09-02T04:21:50.215Z,19.97
2018-09-02T04:24:19.377Z,18.20
2018-09-02T04:26:47.827Z,19.77
2018-09-02T04:29:16.324Z,19.30
2018-09-02T04:31:46.179Z,18.80
2018-09-02T04:34:14.696Z,17.87
2018-09-02T04:36:43.233Z,18.63
2018-09-02T04:39:11.753Z,18.67
2018-09-02T04:41:40.302Z,17.03
2018-09-02T04:44:08.814Z,18.43
2018-09-02T04:46:37.388Z,15.10
2018-09-02T04:49:06.210Z,17.53
2018-09-02T04:51:34.914Z,17.47
2018-09-02T04:54:03.898Z,15.67
2018-09-02T04:56:32.380Z,19.03
2018-09-02T04:59:00.988Z,18.93
2018-09-02T05:01:29.729Z,19.37
2018-09-02T05:03:59.319Z,17.60
2018-09-02T05:06:27.904Z,18.40
2018-09-02T05:08:56.416Z,18.67
2018-09-02T05:11:25.217Z,17.63
2018-09-02T05:13:53.884Z,17.27
2018-09-02T05:16:22.768Z,17.57
2018-09-02T05:18:52.208Z,16.73
2018-09-02T05:21:20.701Z,17.77
2018-09-02T05:23:49.200Z,16.63
2018-09-02T05:26:17.874Z,17.77
2018-09-02T05:28:46.716Z,17.30
2018-09-02T05:31:15.413Z,16.63
2018-09-02T05:33:44.131Z,16.63
2018-09-02T05:36:12.886Z,16.77
2018-09-02T05:38:41.537Z,14.40
2018-09-02T05:41:10.137Z,16.63
2018-09-02T05:43:38.918Z,16.83
2018-09-02T05:46:07.414Z,16.17
2018-09-02T05:48:36.150Z,16.47
2018-09-02T05:51:05.247Z,15.03
2018-09-02T05:53:34.068Z,15.10
2018-09-02T05:56:02.621Z,15.43
2018-09-02T05:58:31.108Z,15.47
2018-09-02T06:01:00.239Z,15.53
2018-09-02T06:03:28.738Z,15.30
2018-09-02T06:05:57.308Z,14.60
2018-09-02T06:08:26.345Z,13.67
2018-09-02T06:10:54.998Z,15.30
2018-09-02T06:13:23.656Z,14.03
2018-09-02T06:15:52.275Z,13.67
2018-09-02T06:18:21.023Z,15.07
2018-09-02T06:20:49.574Z,13.77
2018-09-02T06:23:18.354Z,14.60
2018-09-02T06:25:47.692Z,13.70
2018-09-02T06:28:16.376Z,13.23
2018-09-02T06:30:45.068Z,11.90
2018-09-02T06:33:13.981Z,13.37
2018-09-02T06:35:42.634Z,12.60
2018-09-02T06:38:11.178Z,13.30
2018-09-02T06:40:39.795Z,12.70
2018-09-02T06:43:08.481Z,11.53
2018-09-02T06:45:37.377Z,11.40
2018-09-02T06:48:06.119Z,13.30
2018-09-02T06:50:34.647Z,10.13
2018-09-02T06:53:03.375Z,12.13
2018-09-02T06:55:32.311Z,11.77
2018-09-02T06:58:00.794Z,10.93
2018-09-02T07:00:30.315Z,11.50
2018-09-02T07:02:58.867Z,11.57
2018-09-02T07:05:27.401Z,12.07
2018-09-02T07:07:56.174Z,10.80
2018-09-02T07:10:24.698Z,11.77
2018-09-02T07:12:53.427Z,12.03
2018-09-02T07:15:22.177Z,11.27
2018-09-02T07:17:51.080Z,9.90
2018-09-02T07:20:19.607Z,12.43
2018-09-02T07:22:48.599Z,12.53
2018-09-02T07:25:17.125Z,10.80
2018-09-02T07:27:45.640Z,14.30
2018-09-02T07:30:14.550Z,13.83
2018-09-02T07:32:43.405Z,13.17
2018-09-02T07:35:11.922Z,13.60
2018-09-02T07:37:40.937Z,13.87
2018-09-02T07:40:09.460Z,12.93
2018-09-02T07:42:37.959Z,14.40
2018-09-02T07:45:07.586Z,13.53
2018-09-02T07:47:36.152Z,14.37
2018-09-02T07:50:04.965Z,13.77
2018-09-02T07:52:33.724Z,17.50
2018-09-02T07:55:02.240Z,17.73
2018-09-02T07:57:30.800Z,15.67
2018-09-02T07:59:59.367Z,15.90
2018-09-02T08:02:28.054Z,16.60
2018-09-02T08:04:56.701Z,16.90
2018-09-02T08:07:25.579Z,18.20
2018-09-02T08:09:54.481Z,19.20
2018-09-02T08:12:23.112Z,17.97
2018-09-02T08:14:51.670Z,17.57
2018-09-02T08:17:20.387Z,18.53
2018-09-02T08:19:49.057Z,16.57
2018-09-02T08:22:19.424Z,15.63
2018-09-02T08:24:48.806Z,13.07
2018-09-02T08:27:17.399Z,13.23
2018-09-02T08:29:45.951Z,14.40
2018-09-02T08:32:14.507Z,11.33
2018-09-02T08:34:44.401Z,12.30
2018-09-02T08:37:13.059Z,10.37
2018-09-02T08:39:41.911Z,9.80
2018-09-02T08:42:10.434Z,9.97
2018-09-02T08:44:38.906Z,8.20
2018-09-02T08:47:07.431Z,9.00
2018-09-02T08:49:36.181Z,8.83
2018-09-02T08:52:05.013Z,9.07
2018-09-02T08:54:33.669Z,9.27
2018-09-02T08:57:02.534Z,9.17
2018-09-02T08:59:31.182Z,8.70
2018-09-02T09:01:59.758Z,8.77
2018-09-02T09:04:28.339Z,8.00
2018-09-02T09:06:56.933Z,8.67
2018-09-02T09:09:25.487Z,8.07
2018-09-02T09:11:55.329Z,7.73
2018-09-02T09:14:23.875Z,8.90
2018-09-02T09:16:52.640Z,7.87
2018-09-02T09:19:21.406Z,6.97
2018-09-02T09:21:50.270Z,8.13
2018-09-02T09:24:20.326Z,8.47
2018-09-02T09:26:48.907Z,8.27
2018-09-02T09:29:17.533Z,7.73
2018-09-02T09:31:48.536Z,7.63
2018-09-02T09:34:17.389Z,7.73
2018-09-02T09:36:45.950Z,7.80
2018-09-02T09:39:14.718Z,7.87
2018-09-02T09:41:43.325Z,7.33
2018-09-02T09:44:13.199Z,7.33
2018-09-02T09:46:42.773Z,6.53
2018-09-02T09:49:11.536Z,6.90
2018-09-02T09:51:41.877Z,7.27
2018-09-02T09:54:11.015Z,6.83
2018-09-02T09:56:39.638Z,7.23
2018-09-02T09:59:08.475Z,6.37
2018-09-02T10:01:37.436Z,6.83
2018-09-02T10:04:06.015Z,6.10
2018-09-02T10:06:35.231Z,5.93
2018-09-02T10:09:05.227Z,6.33
2018-09-02T10:11:34.412Z,6.67
2018-09-02T10:14:03.118Z,6.90
2018-09-02T10:16:31.732Z,6.60
2018-09-02T10:19:00.640Z,7.70
2018-09-02T10:21:30.296Z,6.37
2018-09-02T10:23:59.200Z,6.03
2018-09-02T10:26:27.920Z,6.60
2018-09-02T10:28:58.942Z,5.90
2018-09-02T10:31:27.832Z,7.37
2018-09-02T10:33:57.011Z,6.20
2018-09-02T10:36:25.654Z,6.30
2018-09-02T10:38:54.317Z,6.20
2018-09-02T10:41:23.080Z,5.90
2018-09-02T10:43:51.946Z,6.60
2018-09-02T10:46:20.474Z,5.67
2018-09-02T10:48:49.465Z,6.50
2018-09-02T10:51:18.261Z,5.10
2018-09-02T10:53:47.003Z,4.80
2018-09-02T10:56:17.172Z,5.80
2018-09-02T10:58:45.794Z,5.60
2018-09-02T11:01:14.511Z,5.67
2018-09-02T11:03:43.873Z,5.50
2018-09-02T11:06:12.719Z,5.10
2018-09-02T11:08:42.528Z,4.67
2018-09-02T11:11:11.328Z,4.27
2018-09-02T11:13:40.341Z,5.47
2018-09-02T11:16:09.384Z,5.87
2018-09-02T11:18:38.463Z,5.73
2018-09-02T11:21:07.314Z,5.10
2018-09-02T11:23:35.920Z,5.47
2018-09-02T11:26:06.445Z,5.67
2018-09-02T11:28:35.763Z,4.83
2018-09-02T11:31:05.193Z,4.70
2018-09-02T11:33:35.053Z,4.90
2018-09-02T11:36:05.635Z,4.93
2018-09-02T11:38:34.246Z,6.30
2018-09-02T11:41:03.592Z,5.50
2018-09-02T11:43:32.172Z,5.50
2018-09-02T11:46:02.201Z,6.07
2018-09-02T11:48:30.845Z,5.23
2018-09-02T11:50:59.539Z,5.90
2018-09-02T11:53:28.035Z,7.10
2018-09-02T11:55:56.589Z,6.83
2018-09-02T11:58:25.492Z,6.20
2018-09-02T12:00:54.059Z,6.10
2018-09-02T12:03:22.954Z,5.97
2018-09-02T12:05:51.880Z,5.40
2018-09-02T12:08:20.680Z,4.83
2018-09-02T12:10:49.693Z,6.70
2018-09-02T12:13:18.554Z,5.40
2018-09-02T12:15:47.341Z,6.30
2018-09-02T12:18:16.667Z,5.80
2018-09-02T12:20:45.250Z,5.60
2018-09-02T12:23:14.266Z,5.80
2018-09-02T12:25:43.073Z,5.20
2018-09-02T12:28:13.596Z,5.03
2018-09-02T12:30:42.808Z,4.73
2018-09-02T12:33:11.670Z,5.47
2018-09-02T12:35:40.256Z,5.73
2018-09-02T12:38:08.953Z,5.40
2018-09-02T12:40:39.366Z,6.00
2018-09-02T12:43:08.085Z,5.50
2018-09-02T12:45:36.765Z,5.00
2018-09-02T12:48:05.634Z,6.27
2018-09-02T12:50:34.942Z,6.00
2018-09-02T12:53:03.683Z,6.20
2018-09-02T12:55:32.456Z,6.10
2018-09-02T12:58:01.613Z,5.00
2018-09-02T13:00:32.606Z,5.40
2018-09-02T13:03:01.804Z,5.00
2018-09-02T13:05:30.475Z,5.07
2018-09-02T13:07:59.046Z,5.17
2018-09-02T13:10:28.959Z,5.10
2018-09-02T13:12:57.583Z,5.53
2018-09-02T13:15:26.478Z,4.93
2018-09-02T13:17:56.301Z,5.13
2018-09-02T13:20:25.162Z,5.30
2018-09-02T13:22:54.145Z,5.60
2018-09-02T13:25:24.296Z,5.10
2018-09-02T13:27:53.848Z,4.77
2018-09-02T13:30:23.516Z,5.00
2018-09-02T13:32:52.771Z,5.27
2018-09-02T13:35:22.532Z,4.63
2018-09-02T13:37:51.045Z,6.40
2018-09-02T13:40:19.702Z,5.77
2018-09-02T13:42:49.153Z,5.43
2018-09-02T13:45:17.911Z,4.43
2018-09-02T13:47:47.883Z,4.60
2018-09-02T13:50:16.623Z,6.23
2018-09-02T13:52:46.915Z,6.10
2018-09-02T13:55:15.563Z,6.20
2018-09-02T13:57:46.197Z,5.10
2018-09-02T14:00:15.191Z,6.30
2018-09-02T14:02:45.199Z,5.37
2018-09-02T14:05:15.789Z,4.40
2018-09-02T14:07:44.689Z,6.13
2018-09-02T14:10:15.160Z,5.10
2018-09-02T14:12:47.131Z,4.20
2018-09-02T14:15:17.929Z,4.87
2018-09-02T14:17:48.228Z,5.00
2018-09-02T14:20:18.032Z,5.33
2018-09-02T14:22:47.227Z,5.17
2018-09-02T14:25:16.987Z,5.13
2018-09-02T14:27:45.831Z,6.37
2018-09-02T14:30:16.291Z,4.90
2018-09-02T14:32:45.414Z,5.50
2018-09-02T14:35:15.026Z,5.40
2018-09-02T14:37:43.855Z,5.70
2018-09-02T14:40:12.559Z,5.83
2018-09-02T14:42:43.386Z,6.10
2018-09-02T14:45:16.838Z,5.80
2018-09-02T14:47:46.714Z,5.30
2018-09-02T14:50:18.282Z,5.70
2018-09-02T14:52:49.435Z,5.53
2018-09-02T14:55:21.008Z,5.17
2018-09-02T14:57:52.079Z,6.20
2018-09-02T15:00:20.731Z,6.00
2018-09-02T15:02:49.793Z,6.13
2018-09-02T15:05:19.216Z,6.00
2018-09-02T15:07:47.830Z,5.60
2018-09-02T15:10:17.440Z,5.27
2018-09-02T15:12:47.905Z,5.50
2018-09-02T15:15:16.789Z,5.50
2018-09-02T15:17:47.230Z,6.07
2018-09-02T15:20:18.578Z,4.97
2018-09-02T15:22:48.431Z,5.80
2018-09-02T15:25:19.434Z,5.57
2018-09-02T15:27:49.586Z,5.10
2018-09-02T15:30:20.635Z,4.97
2018-09-02T15:32:49.686Z,5.27
2018-09-02T15:35:18.962Z,4.43
2018-09-02T15:37:48.100Z,4.50
2018-09-02T15:40:17.146Z,4.60
2018-09-02T15:42:46.887Z,4.40
2018-09-02T15:45:16.797Z,4.37
2018-09-02T15:47:46.576Z,4.93
2018-09-02T15:50:16.351Z,4.27
2018-09-02T15:52:44.971Z,4.40
2018-09-02T15:55:15.027Z,4.70
2018-09-02T15:57:44.190Z,5.00
2018-09-02T16:00:14.673Z,5.57
2018-09-02T16:02:43.662Z,4.93
2018-09-02T16:05:12.252Z,4.60
2018-09-02T16:07:41.045Z,4.80
2018-09-02T16:10:09.513Z,4.20
2018-09-02T16:12:38.160Z,4.60
2018-09-02T16:15:07.124Z,4.50
2018-09-02T16:17:36.310Z,4.83
2018-09-02T16:20:05.658Z,5.03
2018-09-02T16:22:34.733Z,4.30
2018-09-02T16:25:03.272Z,4.30
2018-09-02T16:27:31.994Z,4.80
2018-09-02T16:30:00.994Z,4.23
2018-09-02T16:32:32.752Z,5.57
2018-09-02T16:35:02.976Z,4.50
2018-09-02T16:37:31.797Z,5.37
2018-09-02T16:40:00.638Z,5.20
2018-09-02T16:42:30.222Z,4.80
2018-09-02T16:45:00.093Z,4.90
2018-09-02T16:47:28.589Z,4.40
2018-09-02T16:49:57.226Z,4.40
2018-09-02T16:52:26.034Z,4.20
2018-09-02T16:54:55.162Z,4.80
2018-09-02T16:57:24.606Z,4.50
2018-09-02T16:59:53.726Z,4.50
2018-09-02T17:02:22.809Z,5.03
2018-09-02T17:04:54.019Z,4.00
2018-09-02T17:07:22.498Z,3.53
2018-09-02T17:09:51.122Z,3.70
2018-09-02T17:12:20.107Z,4.23
2018-09-02T17:14:49.425Z,3.60
2018-09-02T17:17:18.859Z,3.57
2018-09-02T17:19:50.396Z,4.10
2018-09-02T17:22:19.089Z,3.93
2018-09-02T17:24:47.865Z,3.53
2018-09-02T17:27:16.413Z,4.43
2018-09-02T17:29:45.049Z,4.07
2018-09-02T17:32:15.926Z,4.40
2018-09-02T17:34:44.764Z,4.00
2018-09-02T17:37:13.503Z,4.27
2018-09-02T17:39:43.014Z,3.97
2018-09-02T17:42:11.580Z,3.63
2018-09-02T17:44:40.202Z,4.37
2018-09-02T17:47:08.756Z,3.40
2018-09-02T17:49:37.558Z,3.73
2018-09-02T17:52:06.423Z,3.70
2018-09-02T17:54:35.294Z,4.20
2018-09-02T17:57:04.065Z,3.87
2018-09-02T17:59:33.403Z,3.70
2018-09-02T18:02:02.469Z,4.30
2018-09-02T18:04:31.591Z,4.30
2018-09-02T18:07:01.069Z,4.30
2018-09-02T18:09:30.545Z,3.40
2018-09-02T18:11:59.709Z,4.13
2018-09-02T18:14:29.497Z,4.47
2018-09-02T18:16:58.167Z,5.17
2018-09-02T18:19:27.252Z,4.20
2018-09-02T18:21:56.794Z,4.80
2018-09-02T18:24:25.585Z,4.53
2018-09-02T18:26:56.695Z,4.30
2018-09-02T18:29:25.269Z,4.70
2018-09-02T18:31:54.400Z,4.67
2018-09-02T18:34:23.047Z,5.27
2018-09-02T18:36:52.270Z,4.80
2018-09-02T18:39:21.621Z,5.70
2018-09-02T18:41:50.321Z,4.20
2018-09-02T18:44:18.933Z,4.37
2018-09-02T18:46:47.788Z,4.87
2018-09-02T18:49:16.852Z,5.33
2018-09-02T18:51:45.484Z,5.27
2018-09-02T18:54:14.107Z,4.93
2018-09-02T18:56:42.888Z,5.20
2018-09-02T18:59:11.588Z,4.90
2018-09-02T19:01:40.150Z,4.93
2018-09-02T19:04:08.810Z,5.20
2018-09-02T19:06:37.382Z,5.40
2018-09-02T19:09:08.510Z,5.60
2018-09-02T19:11:37.514Z,5.17
2018-09-02T19:14:06.297Z,4.97
2018-09-02T19:16:35.753Z,5.47
2018-09-02T19:19:05.201Z,5.23
2018-09-02T19:21:33.910Z,5.23
2018-09-02T19:24:02.497Z,5.50
2018-09-02T19:26:30.999Z,5.17
2018-09-02T19:29:00.412Z,5.40
2018-09-02T19:31:29.004Z,5.73
2018-09-02T19:33:57.999Z,5.77
2018-09-02T19:36:27.744Z,5.43
2018-09-02T19:38:56.485Z,6.27
2018-09-02T19:41:25.221Z,5.57
2018-09-02T19:43:55.055Z,5.47
2018-09-02T19:46:23.781Z,5.70
2018-09-02T19:48:52.433Z,5.60
2018-09-02T19:51:20.976Z,5.50
2018-09-02T19:53:49.940Z,5.93
2018-09-02T19:56:18.729Z,6.40
2018-09-02T19:58:47.625Z,5.60
2018-09-02T20:01:16.285Z,5.93
2018-09-02T20:03:44.859Z,6.33
2018-09-02T20:06:13.984Z,6.20
2018-09-02T20:08:42.591Z,5.73
2018-09-02T20:11:11.255Z,6.10
2018-09-02T20:13:39.741Z,6.53
2018-09-02T20:16:08.398Z,5.47
2018-09-02T20:18:37.012Z,6.43
2018-09-02T20:21:05.665Z,6.50
2018-09-02T20:23:34.193Z,5.40
2018-09-02T20:26:02.715Z,6.97
2018-09-02T20:28:31.593Z,5.33
2018-09-02T20:31:00.157Z,6.30
2018-09-02T20:33:28.910Z,6.03
2018-09-02T20:35:57.881Z,6.17
2018-09-02T20:38:26.599Z,5.90
2018-09-02T20:40:55.105Z,6.13
2018-09-02T20:43:23.680Z,6.10
2018-09-02T20:45:52.506Z,6.80
2018-09-02T20:48:21.090Z,6.30
2018-09-02T20:50:49.728Z,6.43
2018-09-02T20:53:18.383Z,6.53
2018-09-02T20:55:47.601Z,5.20
2018-09-02T20:58:16.668Z,5.53
2018-09-02T21:00:45.205Z,6.50
2018-09-02T21:03:14.747Z,7.27
2018-09-02T21:05:44.832Z,5.97
2018-09-02T21:08:14.412Z,6.10
2018-09-02T21:10:43.462Z,6.23
2018-09-02T21:13:14.118Z,6.00
2018-09-02T21:15:42.690Z,5.93
2018-09-02T21:18:12.697Z,6.57
2018-09-02T21:20:41.302Z,6.60
2018-09-02T21:23:10.012Z,6.73
2018-09-02T21:25:38.622Z,7.37
2018-09-02T21:28:07.203Z,6.63
2018-09-02T21:30:35.765Z,6.20
2018-09-02T21:33:04.568Z,7.07
2018-09-02T21:35:33.082Z,6.80
2018-09-02T21:38:01.995Z,6.63
2018-09-02T21:40:30.650Z,7.10
2018-09-02T21:42:59.158Z,6.20
2018-09-02T21:45:27.661Z,6.67
2018-09-02T21:47:56.268Z,6.83
2018-09-02T21:50:24.919Z,6.93
2018-09-02T21:52:53.658Z,6.90
2018-09-02T21:55:22.272Z,6.73
2018-09-02T21:57:50.784Z,6.07
2018-09-02T22:00:19.354Z,6.73
2018-09-02T22:02:47.833Z,6.73
2018-09-02T22:05:16.725Z,6.27
2018-09-02T22:07:45.325Z,6.60
2018-09-02T22:10:13.877Z,6.90
2018-09-02T22:12:42.419Z,6.47
2018-09-02T22:15:11.527Z,6.83
2018-09-02T22:17:40.140Z,6.80
2018-09-02T22:20:08.897Z,7.03
2018-09-02T22:22:37.411Z,6.43
2018-09-02T22:25:07.079Z,7.13
2018-09-02T22:27:35.639Z,6.63
2018-09-02T22:30:04.487Z,6.43
2018-09-02T22:32:33.065Z,6.40
2018-09-02T22:35:01.639Z,6.50
2018-09-02T22:37:30.506Z,6.20
2018-09-02T22:39:59.349Z,6.10
2018-09-02T22:42:27.953Z,5.70
2018-09-02T22:44:56.607Z,6.53
2018-09-02T22:47:25.317Z,6.70
2018-09-02T22:49:54.657Z,5.50
2018-09-02T22:52:23.393Z,7.00
2018-09-02T22:54:52.064Z,6.90
2018-09-02T22:57:20.828Z,6.43
2018-09-02T22:59:49.531Z,6.23
2018-09-02T23:02:18.517Z,6.87
2018-09-02T23:04:47.567Z,6.63
2018-09-02T23:07:16.138Z,5.93
2018-09-02T23:09:45.104Z,6.03
2018-09-02T23:12:14.215Z,6.33
2018-09-02T23:14:42.842Z,5.20
2018-09-02T23:17:11.520Z,6.10
2018-09-02T23:19:40.210Z,5.83
2018-09-02T23:22:09.719Z,4.63
2018-09-02T23:24:38.276Z,5.43
2018-09-02T23:27:06.838Z,5.50
2018-09-02T23:29:35.370Z,5.93
2018-09-02T23:32:03.957Z,5.20
2018-09-02T23:34:32.728Z,5.50
2018-09-02T23:37:01.220Z,5.57
2018-09-02T23:39:29.760Z,5.23
2018-09-02T23:41:58.292Z,4.90
2018-09-02T23:44:26.882Z,5.03
2018-09-02T23:46:55.495Z,5.60
2018-09-02T23:49:24.033Z,4.30
2018-09-02T23:51:52.764Z,4.67
2018-09-02T23:54:21.548Z,4.90
2018-09-02T23:56:50.542Z,4.90
2018-09-02T23:59:19.534Z,5.37
